createdAt,value
2022-10-21T00:01:05.549Z,6.86
2022-10-21T00:06:14.699Z,6.80
2022-10-21T00:11:17.626Z,6.72
2022-10-21T00:16:20.863Z,6.65
2022-10-21T00:21:23.849Z,6.62
2022-10-21T00:26:26.731Z,6.61
2022-10-21T00:31:30.648Z,6.64
2022-10-21T00:36:33.842Z,6.64
2022-10-21T00:41:36.771Z,6.63
2022-10-21T00:47:01.118Z,6.58
2022-10-21T00:52:08.770Z,6.49
2022-10-21T00:57:11.888Z,6.43
2022-10-21T01:02:14.998Z,6.40
2022-10-21T01:07:18.342Z,6.41
2022-10-21T01:12:59.775Z,6.42
2022-10-21T01:18:24.686Z,6.32
2022-10-21T01:23:47.054Z,6.18
2022-10-21T01:28:58.812Z,6.12
2022-10-21T01:34:26.212Z,6.11
2022-10-21T01:39:35.593Z,6.09
2022-10-21T01:44:43.130Z,6.06
2022-10-21T01:50:00.428Z,6.03
2022-10-21T01:55:08.811Z,5.99
2022-10-21T02:00:12.687Z,5.96
2022-10-21T02:05:23.182Z,5.92
2022-10-21T02:10:30.148Z,5.84
2022-10-21T02:15:34.455Z,5.78
2022-10-21T02:20:42.500Z,5.83
2022-10-21T02:25:48.910Z,5.92
2022-10-21T02:31:07.184Z,5.95
2022-10-21T02:36:12.696Z,5.86
2022-10-21T02:41:21.405Z,5.79
2022-10-21T02:46:25.123Z,5.72
2022-10-21T02:51:28.162Z,5.66
2022-10-21T02:56:31.264Z,5.59
2022-10-21T03:01:34.224Z,5.53
2022-10-21T03:06:37.106Z,5.48
2022-10-21T03:11:39.977Z,5.42
2022-10-21T03:16:42.880Z,5.44
2022-10-21T03:21:45.790Z,5.43
2022-10-21T03:26:48.733Z,5.40
2022-10-21T03:31:51.656Z,5.38
2022-10-21T03:36:56.028Z,5.34
2022-10-21T03:41:58.934Z,5.29
2022-10-21T03:47:01.886Z,5.29
2022-10-21T03:52:04.850Z,5.25
2022-10-21T03:57:08.078Z,5.17
2022-10-21T04:02:11.023Z,5.13
2022-10-21T04:07:14.178Z,5.19
2022-10-21T04:12:17.066Z,5.26
2022-10-21T04:17:20.091Z,5.24
2022-10-21T04:22:23.288Z,5.22
2022-10-21T04:27:26.148Z,5.21
2022-10-21T04:32:29.067Z,5.17
2022-10-21T04:37:32.198Z,5.11
2022-10-21T04:42:35.131Z,5.05
2022-10-21T04:47:38.324Z,5.01
2022-10-21T04:52:41.510Z,4.97
2022-10-21T04:57:44.652Z,4.98
2022-10-21T05:02:47.859Z,4.98
2022-10-21T05:07:50.779Z,4.98
2022-10-21T05:12:53.781Z,4.95
2022-10-21T05:17:56.749Z,4.92
2022-10-21T05:22:59.774Z,4.86
2022-10-21T05:28:02.757Z,4.80
2022-10-21T05:33:06.949Z,4.76
2022-10-21T05:38:10.047Z,4.81
2022-10-21T05:43:12.981Z,4.93
2022-10-21T05:48:18.442Z,5.03
2022-10-21T05:53:24.027Z,5.09
2022-10-21T05:58:28.155Z,5.20
2022-10-21T06:03:33.128Z,5.30
2022-10-21T06:08:39.308Z,5.43
2022-10-21T06:13:42.865Z,5.58
2022-10-21T06:18:45.885Z,5.73
2022-10-21T06:23:53.794Z,5.85
2022-10-21T06:28:57.898Z,5.93
2022-10-21T06:34:00.865Z,5.98
2022-10-21T06:39:05.752Z,6.03
2022-10-21T06:44:08.685Z,6.08
2022-10-21T06:49:11.667Z,6.16
2022-10-21T06:54:14.647Z,6.25
2022-10-21T06:59:17.701Z,6.37
2022-10-21T07:04:20.579Z,6.50
2022-10-21T07:09:23.525Z,6.66
2022-10-21T07:14:26.728Z,6.79
2022-10-21T07:19:29.854Z,6.90
2022-10-21T07:24:33.232Z,6.99
2022-10-21T07:29:36.146Z,7.03
2022-10-21T07:34:39.060Z,7.04
2022-10-21T07:39:42.093Z,7.06
2022-10-21T07:44:45.055Z,7.09
2022-10-21T07:49:47.889Z,7.21
2022-10-21T07:54:50.882Z,7.35
2022-10-21T07:59:56.335Z,7.40
2022-10-21T08:04:59.384Z,7.45
2022-10-21T08:10:02.823Z,7.51
2022-10-21T08:15:06.150Z,7.64
2022-10-21T08:20:09.683Z,7.76
2022-10-21T08:25:16.769Z,7.90
2022-10-21T08:30:19.655Z,8.10
2022-10-21T08:35:22.591Z,8.27
2022-10-21T08:40:26.178Z,8.44
2022-10-21T08:45:38.251Z,8.59
2022-10-21T08:50:47.339Z,8.77
2022-10-21T08:55:52.736Z,8.97
2022-10-21T09:01:10.879Z,9.19
2022-10-21T09:06:19.696Z,9.41
2022-10-21T09:11:34.558Z,9.61
2022-10-21T09:16:58.376Z,9.81
2022-10-21T09:22:29.996Z,10.02
2022-10-21T09:27:51.520Z,10.19
2022-10-21T09:32:59.651Z,10.36
2022-10-21T09:38:14.190Z,10.53
2022-10-21T09:43:20.995Z,10.67
2022-10-21T09:48:41.719Z,10.76
2022-10-21T09:53:57.459Z,10.86
2022-10-21T09:59:07.643Z,10.98
2022-10-21T10:04:14.968Z,11.12
2022-10-21T10:09:34.097Z,11.30
2022-10-21T10:14:39.733Z,11.41
2022-10-21T10:19:42.683Z,11.48
2022-10-21T10:24:45.671Z,11.55
2022-10-21T10:30:00.847Z,11.69
2022-10-21T10:35:14.945Z,11.84
2022-10-21T10:40:28.867Z,11.98
2022-10-21T10:45:32.306Z,12.12
2022-10-21T10:50:38.033Z,12.24
2022-10-21T10:55:45.584Z,12.37
2022-10-21T11:00:52.048Z,12.45
2022-10-21T11:06:08.399Z,12.57
2022-10-21T11:11:20.028Z,12.67
2022-10-21T11:16:50.574Z,12.74
2022-10-21T11:22:24.163Z,12.79
2022-10-21T11:28:02.681Z,12.77
2022-10-21T11:33:23.641Z,12.77
2022-10-21T11:38:41.396Z,12.76
2022-10-21T11:44:05.687Z,12.77
2022-10-21T11:49:40.800Z,12.78
2022-10-21T11:55:08.350Z,12.79
2022-10-21T12:00:26.534Z,12.82
2022-10-21T12:05:47.102Z,12.91
2022-10-21T12:10:55.700Z,12.96
2022-10-21T12:16:02.455Z,13.02
2022-10-21T12:21:07.235Z,13.11
2022-10-21T12:26:18.022Z,13.19
2022-10-21T12:31:38.275Z,13.30
2022-10-21T12:36:41.351Z,13.41
2022-10-21T12:41:47.301Z,13.52
2022-10-21T12:46:56.573Z,13.68
2022-10-21T12:52:22.734Z,13.83
2022-10-21T12:57:28.287Z,13.98
2022-10-21T13:02:31.383Z,14.06
2022-10-21T13:07:36.175Z,14.11
2022-10-21T13:12:39.411Z,14.18
2022-10-21T13:17:56.294Z,14.27
2022-10-21T13:23:31.792Z,14.37
2022-10-21T13:28:34.898Z,14.44
2022-10-21T13:33:39.218Z,14.48
2022-10-21T13:38:51.313Z,14.52
2022-10-21T13:43:55.852Z,14.55
2022-10-21T13:49:01.987Z,14.57
2022-10-21T13:54:16.197Z,14.59
2022-10-21T13:59:30.054Z,14.60
2022-10-21T14:04:40.215Z,14.60
2022-10-21T14:09:46.632Z,14.60
2022-10-21T14:14:50.159Z,14.60
2022-10-21T14:20:07.813Z,14.61
2022-10-21T14:25:16.118Z,14.59
2022-10-21T14:30:25.821Z,14.58
2022-10-21T14:35:30.459Z,14.56
2022-10-21T14:40:37.780Z,14.53
2022-10-21T14:45:53.956Z,14.48
2022-10-21T14:51:11.247Z,14.43
2022-10-21T14:56:22.373Z,14.37
2022-10-21T15:01:26.029Z,14.31
2022-10-21T15:06:32.791Z,14.26
2022-10-21T15:11:38.333Z,14.18
2022-10-21T15:16:52.145Z,14.12
2022-10-21T15:22:00.979Z,14.06
2022-10-21T15:27:05.456Z,13.99
2022-10-21T15:32:12.333Z,13.93
2022-10-21T15:37:15.334Z,13.89
2022-10-21T15:42:19.387Z,13.86
2022-10-21T15:47:24.940Z,13.84
2022-10-21T15:52:27.811Z,13.81
2022-10-21T15:57:30.715Z,13.76
2022-10-21T16:02:39.496Z,13.71
2022-10-21T16:07:43.210Z,13.67
2022-10-21T16:12:46.316Z,13.64
2022-10-21T16:17:54.248Z,13.65
2022-10-21T16:23:02.266Z,13.63
2022-10-21T16:28:06.528Z,13.60
2022-10-21T16:33:11.334Z,13.56
2022-10-21T16:38:14.549Z,13.51
2022-10-21T16:43:17.649Z,13.48
2022-10-21T16:48:20.759Z,13.43
2022-10-21T16:53:24.015Z,13.41
2022-10-21T16:58:27.021Z,13.43
2022-10-21T17:03:30.273Z,14.74
2022-10-21T17:08:33.188Z,16.23
2022-10-21T17:13:36.184Z,17.15
2022-10-21T17:18:39.998Z,17.57
2022-10-21T17:23:42.916Z,17.76
2022-10-21T17:28:45.940Z,17.90
2022-10-21T17:33:50.910Z,17.92
2022-10-21T17:38:54.048Z,17.92
2022-10-21T17:43:57.304Z,17.81
2022-10-21T17:49:00.253Z,17.80
2022-10-21T17:54:03.643Z,17.77
2022-10-21T17:59:06.676Z,17.49
2022-10-21T18:08:45.883Z,17.16
2022-10-21T18:13:53.450Z,16.61
2022-10-21T18:19:01.801Z,15.91
2022-10-21T18:24:10.030Z,15.32
2022-10-21T18:29:16.475Z,14.90
2022-10-21T18:34:19.497Z,14.59
2022-10-21T18:39:23.175Z,14.38
2022-10-21T18:44:27.065Z,14.26
2022-10-21T18:49:29.997Z,14.18
2022-10-21T18:54:33.229Z,14.12
2022-10-21T18:59:36.545Z,14.10
2022-10-21T19:04:39.487Z,14.05
2022-10-21T19:09:42.568Z,13.99
2022-10-21T19:14:45.690Z,13.93
2022-10-21T19:19:50.196Z,13.90
2022-10-21T19:24:53.250Z,13.89
2022-10-21T19:29:56.135Z,13.84
2022-10-21T19:34:59.106Z,13.80
2022-10-21T19:40:02.264Z,13.78
2022-10-21T19:45:05.963Z,13.77
2022-10-21T19:50:09.229Z,13.78
2022-10-21T19:55:12.531Z,13.76
2022-10-21T20:00:15.596Z,13.71
2022-10-21T20:05:18.767Z,13.63
2022-10-21T20:10:23.764Z,13.53
2022-10-21T20:15:27.013Z,13.43
2022-10-21T20:20:29.955Z,13.41
2022-10-21T20:25:33.033Z,13.43
2022-10-21T20:30:36.143Z,13.41
2022-10-21T20:35:42.787Z,13.40
2022-10-21T20:40:55.162Z,13.34
2022-10-21T20:46:02.795Z,13.27
2022-10-21T20:51:08.515Z,13.19
2022-10-21T20:56:11.642Z,13.09
2022-10-21T21:01:27.769Z,13.02
2022-10-21T21:06:35.182Z,13.04
2022-10-21T21:11:38.494Z,13.09
2022-10-21T21:16:41.473Z,13.05
2022-10-21T21:21:44.412Z,12.99
2022-10-21T21:26:47.536Z,12.98
2022-10-21T21:31:50.429Z,13.20
2022-10-21T21:36:53.326Z,13.21
2022-10-21T21:41:56.620Z,13.16
2022-10-21T21:46:59.748Z,13.15
2022-10-21T21:52:02.658Z,13.09
2022-10-21T21:57:35.596Z,13.02
2022-10-21T22:02:28.644Z,12.95
2022-10-21T22:07:33.149Z,12.86
2022-10-21T22:12:36.148Z,12.76
2022-10-21T22:17:39.963Z,12.66
2022-10-21T22:22:43.336Z,12.56
2022-10-21T22:27:46.342Z,12.53
2022-10-21T22:32:49.845Z,12.52
2022-10-21T22:37:52.847Z,12.52
2022-10-21T22:42:55.916Z,12.56
2022-10-21T22:47:59.223Z,12.63
2022-10-21T22:53:03.179Z,12.67
2022-10-21T22:58:06.973Z,12.69
2022-10-21T23:03:10.004Z,12.70
2022-10-21T23:08:13.201Z,12.73
2022-10-21T23:13:16.600Z,12.77
2022-10-21T23:18:19.544Z,12.77
2022-10-21T23:23:23.196Z,12.76
2022-10-21T23:28:26.324Z,12.76
2022-10-21T23:33:29.834Z,12.69
2022-10-21T23:38:33.216Z,12.61
2022-10-21T23:43:36.239Z,12.51
2022-10-21T23:48:39.525Z,12.46
2022-10-21T23:53:42.639Z,12.45
2022-10-21T23:58:45.787Z,12.47
